This is the latest recevied weather packets stored in our database for station/object JM1YTT-13. If no packets are shown the sender has not sent any weather packets the latest 10 day(s).
| Time | Temp. | Humidity | Pressure | Rain* | Wind** | Luminosity | Snow |
|---|---|---|---|---|---|---|---|
| 1777700590 | 27.78° C | 32% | 1004.4 hPa | 0 mm | - | - | - |
| 1777698790 | 27.78° C | 28% | 1004.1 hPa | 0 mm | - | - | - |
| 1777696990 | 27.78° C | 28% | 1003.8 hPa | 0 mm | - | - | - |
| 1777695190 | 27.22° C | 29% | 1003.9 hPa | 0 mm | - | - | - |
| 1777693390 | 26.67° C | 30% | 1003.4 hPa | 0 mm | - | - | - |
| 1777691590 | 26.11° C | 33% | 1002.9 hPa | 0 mm | - | - | - |
| 1777689790 | 26.11° C | 40% | 1002.6 hPa | 0 mm | - | - | - |
| 1777673590 | 18.33° C | 52% | 999.6 hPa | 0 mm | - | - | - |
| 1777671790 | 16.67° C | 57% | 999 hPa | 0 mm | - | - | - |
| 1777669990 | 16.11° C | 59% | 998.7 hPa | 0 mm | - | - | - |
| 1777666390 | 13.89° C | 79% | 997.1 hPa | 0 mm | - | - | - |
| 1777664590 | 13.89° C | 81% | 996.3 hPa | 0 mm | - | - | - |
| 1777659190 | 14.44° C | 79% | 993.8 hPa | 0 mm | - | - | - |
| 1777655590 | 14.44° C | 78% | 993.4 hPa | 0 mm | - | - | - |
| 1777653790 | 13.33° C | 85% | 993.2 hPa | 0 mm | - | - | - |
| 1777651990 | 13.33° C | 83% | 993.4 hPa | 0 mm | - | - | - |
| 1777650190 | 13.33° C | 83% | 993.4 hPa | 0 mm | - | - | - |
| 1777648390 | 13.89° C | 82% | 993.5 hPa | 0 mm | - | - | - |
| 1777646590 | 14.44° C | 79% | 993 hPa | 0 mm | - | - | - |
| 1777644790 | 15° C | 79% | 993.4 hPa | 0 mm | - | - | - |
| 1777642990 | 15° C | 79% | 993.4 hPa | 0 mm | - | - | - |
| 1777641190 | 15.56° C | 77% | 993 hPa | 0 mm | - | - | - |
| 1777639390 | 16.67° C | 76% | 992.8 hPa | 0 mm | - | - | - |
| 1777637590 | 17.22° C | 71% | 992.1 hPa | 0 mm | - | - | - |
| 1777633990 | 17.78° C | 64% | 990.3 hPa | 0 mm | - | - | - |
* Rain latest hour (hover to see other rain measurements)
** Current wind speed in m/s (hover to see current wind gust speed)